sensor_id;sensor_type;location;lat;lon;timestamp;P1;durP1;ratioP1;P2;durP2;ratioP2
1509;SDS011;746;48.688;9.428;2023-02-01T00:02:05;4.50;;;4.10;;
1509;SDS011;746;48.688;9.428;2023-02-01T00:04:27;4.57;;;4.17;;
1509;SDS011;746;48.688;9.428;2023-02-01T00:06:48;4.47;;;4.07;;
1509;SDS011;746;48.688;9.428;2023-02-01T00:09:10;4.70;;;4.30;;
1509;SDS011;746;48.688;9.428;2023-02-01T00:11:31;4.63;;;4.10;;
1509;SDS011;746;48.688;9.428;2023-02-01T00:13:52;5.97;;;4.27;;
1509;SDS011;746;48.688;9.428;2023-02-01T00:16:16;4.40;;;4.00;;
1509;SDS011;746;48.688;9.428;2023-02-01T00:18:37;4.70;;;4.30;;
1509;SDS011;746;48.688;9.428;2023-02-01T00:20:59;4.90;;;4.03;;
1509;SDS011;746;48.688;9.428;2023-02-01T00:23:20;4.17;;;3.80;;
1509;SDS011;746;48.688;9.428;2023-02-01T00:25:41;5.70;;;4.23;;
1509;SDS011;746;48.688;9.428;2023-02-01T00:28:02;4.43;;;4.03;;
1509;SDS011;746;48.688;9.428;2023-02-01T00:30:23;4.73;;;3.97;;
1509;SDS011;746;48.688;9.428;2023-02-01T00:32:46;4.40;;;4.00;;
1509;SDS011;746;48.688;9.428;2023-02-01T00:35:08;4.53;;;4.13;;
1509;SDS011;746;48.688;9.428;2023-02-01T00:37:29;4.43;;;4.10;;
1509;SDS011;746;48.688;9.428;2023-02-01T00:39:50;4.43;;;4.13;;
1509;SDS011;746;48.688;9.428;2023-02-01T00:42:14;5.43;;;4.60;;
1509;SDS011;746;48.688;9.428;2023-02-01T00:44:35;4.10;;;3.80;;
1509;SDS011;746;48.688;9.428;2023-02-01T00:46:57;4.20;;;3.90;;
1509;SDS011;746;48.688;9.428;2023-02-01T00:49:19;4.80;;;4.30;;
1509;SDS011;746;48.688;9.428;2023-02-01T00:51:40;3.57;;;3.27;;
1509;SDS011;746;48.688;9.428;2023-02-01T00:54:02;4.43;;;4.00;;
1509;SDS011;746;48.688;9.428;2023-02-01T00:56:23;4.83;;;4.33;;
1509;SDS011;746;48.688;9.428;2023-02-01T00:58:47;4.63;;;3.97;;
1509;SDS011;746;48.688;9.428;2023-02-01T01:01:09;4.70;;;3.77;;
1509;SDS011;746;48.688;9.428;2023-02-01T01:03:31;4.07;;;3.77;;
1509;SDS011;746;48.688;9.428;2023-02-01T01:05:56;3.93;;;3.63;;
1509;SDS011;746;48.688;9.428;2023-02-01T01:08:18;4.90;;;3.77;;
1509;SDS011;746;48.688;9.428;2023-02-01T01:10:39;4.20;;;3.90;;
1509;SDS011;746;48.688;9.428;2023-02-01T01:13:01;4.10;;;3.70;;
1509;SDS011;746;48.688;9.428;2023-02-01T01:15:22;4.37;;;3.97;;
1509;SDS011;746;48.688;9.428;2023-02-01T01:17:44;3.80;;;3.50;;
1509;SDS011;746;48.688;9.428;2023-02-01T01:20:05;4.70;;;4.30;;
1509;SDS011;746;48.688;9.428;2023-02-01T01:22:28;4.07;;;3.67;;
1509;SDS011;746;48.688;9.428;2023-02-01T01:24:49;3.87;;;3.57;;
1509;SDS011;746;48.688;9.428;2023-02-01T01:27:10;4.00;;;3.60;;
1509;SDS011;746;48.688;9.428;2023-02-01T01:29:32;3.80;;;3.50;;
1509;SDS011;746;48.688;9.428;2023-02-01T01:31:53;3.70;;;3.40;;
1509;SDS011;746;48.688;9.428;2023-02-01T01:34:14;3.80;;;3.50;;
1509;SDS011;746;48.688;9.428;2023-02-01T01:36:35;3.73;;;3.43;;
1509;SDS011;746;48.688;9.428;2023-02-01T01:38:58;4.00;;;3.70;;
1509;SDS011;746;48.688;9.428;2023-02-01T01:41:20;3.90;;;3.60;;
1509;SDS011;746;48.688;9.428;2023-02-01T01:46:21;4.00;;;3.30;;
1509;SDS011;746;48.688;9.428;2023-02-01T01:48:42;3.50;;;3.23;;
1509;SDS011;746;48.688;9.428;2023-02-01T01:51:05;3.90;;;3.60;;
1509;SDS011;746;48.688;9.428;2023-02-01T01:53:27;3.73;;;3.43;;
1509;SDS011;746;48.688;9.428;2023-02-01T01:55:50;3.63;;;3.37;;
1509;SDS011;746;48.688;9.428;2023-02-01T01:58:12;4.50;;;3.40;;
1509;SDS011;746;48.688;9.428;2023-02-01T02:00:35;4.00;;;3.67;;
1509;SDS011;746;48.688;9.428;2023-02-01T02:02:58;3.50;;;3.20;;
1509;SDS011;746;48.688;9.428;2023-02-01T02:05:20;3.13;;;2.93;;
1509;SDS011;746;48.688;9.428;2023-02-01T02:07:42;3.43;;;3.23;;
1509;SDS011;746;48.688;9.428;2023-02-01T02:10:06;3.40;;;3.20;;
1509;SDS011;746;48.688;9.428;2023-02-01T02:12:31;3.80;;;3.50;;
1509;SDS011;746;48.688;9.428;2023-02-01T02:14:53;3.33;;;3.10;;
1509;SDS011;746;48.688;9.428;2023-02-01T02:17:30;3.43;;;3.23;;
1509;SDS011;746;48.688;9.428;2023-02-01T02:22:42;3.10;;;2.90;;
1509;SDS011;746;48.688;9.428;2023-02-01T02:25:33;2.97;;;2.77;;
1509;SDS011;746;48.688;9.428;2023-02-01T02:27:59;3.13;;;2.90;;
1509;SDS011;746;48.688;9.428;2023-02-01T02:30:40;3.50;;;3.20;;
1509;SDS011;746;48.688;9.428;2023-02-01T02:33:24;2.93;;;2.73;;
1509;SDS011;746;48.688;9.428;2023-02-01T02:35:52;2.90;;;2.70;;
1509;SDS011;746;48.688;9.428;2023-02-01T02:38:18;3.07;;;2.90;;
1509;SDS011;746;48.688;9.428;2023-02-01T02:40:43;3.17;;;2.97;;
1509;SDS011;746;48.688;9.428;2023-02-01T02:43:08;3.20;;;3.00;;
1509;SDS011;746;48.688;9.428;2023-02-01T02:45:49;3.17;;;2.97;;
1509;SDS011;746;48.688;9.428;2023-02-01T02:48:33;3.00;;;2.80;;
1509;SDS011;746;48.688;9.428;2023-02-01T02:51:00;3.17;;;2.97;;
1509;SDS011;746;48.688;9.428;2023-02-01T02:53:41;3.00;;;2.80;;
1509;SDS011;746;48.688;9.428;2023-02-01T02:56:24;2.83;;;2.63;;
1509;SDS011;746;48.688;9.428;2023-02-01T02:59:04;2.83;;;2.70;;
1509;SDS011;746;48.688;9.428;2023-02-01T03:01:44;3.10;;;2.90;;
1509;SDS011;746;48.688;9.428;2023-02-01T03:04:25;3.03;;;2.90;;
1509;SDS011;746;48.688;9.428;2023-02-01T03:06:46;2.80;;;2.70;;
1509;SDS011;746;48.688;9.428;2023-02-01T03:09:09;2.80;;;2.67;;
1509;SDS011;746;48.688;9.428;2023-02-01T03:11:31;2.60;;;2.50;;
1509;SDS011;746;48.688;9.428;2023-02-01T03:14:07;3.53;;;3.23;;
1509;SDS011;746;48.688;9.428;2023-02-01T03:16:30;3.50;;;3.30;;
1509;SDS011;746;48.688;9.428;2023-02-01T03:18:54;3.07;;;2.87;;
1509;SDS011;746;48.688;9.428;2023-02-01T03:21:18;3.10;;;2.90;;
1509;SDS011;746;48.688;9.428;2023-02-01T03:23:41;3.40;;;3.20;;
1509;SDS011;746;48.688;9.428;2023-02-01T03:26:04;3.20;;;3.00;;
1509;SDS011;746;48.688;9.428;2023-02-01T03:28:27;3.20;;;3.00;;
1509;SDS011;746;48.688;9.428;2023-02-01T03:30:49;3.20;;;3.03;;
1509;SDS011;746;48.688;9.428;2023-02-01T03:33:11;3.40;;;3.20;;
1509;SDS011;746;48.688;9.428;2023-02-01T03:35:44;3.20;;;3.00;;
1509;SDS011;746;48.688;9.428;2023-02-01T03:38:08;3.40;;;3.20;;
1509;SDS011;746;48.688;9.428;2023-02-01T03:40:32;3.50;;;3.30;;
1509;SDS011;746;48.688;9.428;2023-02-01T03:42:55;3.23;;;3.03;;
1509;SDS011;746;48.688;9.428;2023-02-01T03:45:20;3.33;;;3.13;;
1509;SDS011;746;48.688;9.428;2023-02-01T03:47:43;3.80;;;3.50;;
1509;SDS011;746;48.688;9.428;2023-02-01T03:50:06;3.53;;;3.33;;
1509;SDS011;746;48.688;9.428;2023-02-01T03:52:30;3.30;;;3.10;;
1509;SDS011;746;48.688;9.428;2023-02-01T03:54:55;3.43;;;3.20;;
1509;SDS011;746;48.688;9.428;2023-02-01T03:57:19;3.90;;;3.40;;
1509;SDS011;746;48.688;9.428;2023-02-01T03:59:43;3.40;;;3.20;;
1509;SDS011;746;48.688;9.428;2023-02-01T04:02:05;3.70;;;3.50;;
1509;SDS011;746;48.688;9.428;2023-02-01T04:04:26;3.60;;;3.40;;
1509;SDS011;746;48.688;9.428;2023-02-01T04:06:47;3.60;;;3.30;;
1509;SDS011;746;48.688;9.428;2023-02-01T04:09:08;3.30;;;3.00;;
1509;SDS011;746;48.688;9.428;2023-02-01T04:11:31;3.10;;;2.90;;
1509;SDS011;746;48.688;9.428;2023-02-01T04:13:52;3.67;;;3.40;;
1509;SDS011;746;48.688;9.428;2023-02-01T04:16:14;3.63;;;3.30;;
1509;SDS011;746;48.688;9.428;2023-02-01T04:18:35;3.43;;;3.23;;
1509;SDS011;746;48.688;9.428;2023-02-01T04:20:56;2.73;;;2.60;;
1509;SDS011;746;48.688;9.428;2023-02-01T04:23:17;3.37;;;3.17;;
1509;SDS011;746;48.688;9.428;2023-02-01T04:25:39;3.67;;;3.37;;
1509;SDS011;746;48.688;9.428;2023-02-01T04:28:01;2.97;;;2.77;;
1509;SDS011;746;48.688;9.428;2023-02-01T04:30:22;3.20;;;3.00;;
1509;SDS011;746;48.688;9.428;2023-02-01T04:32:45;3.37;;;3.07;;
1509;SDS011;746;48.688;9.428;2023-02-01T04:35:07;3.00;;;2.80;;
1509;SDS011;746;48.688;9.428;2023-02-01T04:37:28;3.57;;;3.27;;
1509;SDS011;746;48.688;9.428;2023-02-01T04:39:49;2.97;;;2.80;;
1509;SDS011;746;48.688;9.428;2023-02-01T04:42:11;3.17;;;2.97;;
1509;SDS011;746;48.688;9.428;2023-02-01T04:44:34;3.33;;;3.03;;
1509;SDS011;746;48.688;9.428;2023-02-01T04:46:56;3.30;;;3.10;;
1509;SDS011;746;48.688;9.428;2023-02-01T04:49:18;3.00;;;2.63;;
1509;SDS011;746;48.688;9.428;2023-02-01T04:51:41;3.87;;;2.60;;
1509;SDS011;746;48.688;9.428;2023-02-01T04:54:02;2.97;;;2.77;;
1509;SDS011;746;48.688;9.428;2023-02-01T04:56:23;3.23;;;3.03;;
1509;SDS011;746;48.688;9.428;2023-02-01T04:58:45;3.03;;;2.83;;
1509;SDS011;746;48.688;9.428;2023-02-01T05:01:07;3.10;;;2.90;;
1509;SDS011;746;48.688;9.428;2023-02-01T05:03:29;3.10;;;2.90;;
1509;SDS011;746;48.688;9.428;2023-02-01T05:05:50;5.33;;;4.80;;
1509;SDS011;746;48.688;9.428;2023-02-01T05:08:13;3.33;;;3.13;;
1509;SDS011;746;48.688;9.428;2023-02-01T05:10:34;3.20;;;3.00;;
1509;SDS011;746;48.688;9.428;2023-02-01T05:12:55;3.93;;;3.50;;
1509;SDS011;746;48.688;9.428;2023-02-01T05:15:34;3.00;;;2.80;;
1509;SDS011;746;48.688;9.428;2023-02-01T05:17:57;3.10;;;2.90;;
1509;SDS011;746;48.688;9.428;2023-02-01T05:20:18;3.40;;;3.20;;
1509;SDS011;746;48.688;9.428;2023-02-01T05:22:40;3.00;;;2.80;;
1509;SDS011;746;48.688;9.428;2023-02-01T05:25:01;2.60;;;2.50;;
1509;SDS011;746;48.688;9.428;2023-02-01T05:27:23;3.30;;;3.10;;
1509;SDS011;746;48.688;9.428;2023-02-01T05:29:44;2.90;;;2.70;;
1509;SDS011;746;48.688;9.428;2023-02-01T05:32:05;2.93;;;2.73;;
1509;SDS011;746;48.688;9.428;2023-02-01T05:34:42;3.20;;;3.00;;
1509;SDS011;746;48.688;9.428;2023-02-01T05:37:03;3.00;;;2.80;;
1509;SDS011;746;48.688;9.428;2023-02-01T05:39:25;3.50;;;3.20;;
1509;SDS011;746;48.688;9.428;2023-02-01T05:41:46;3.60;;;3.30;;
1509;SDS011;746;48.688;9.428;2023-02-01T05:44:07;3.00;;;2.80;;
1509;SDS011;746;48.688;9.428;2023-02-01T05:46:29;3.10;;;2.90;;
1509;SDS011;746;48.688;9.428;2023-02-01T05:48:50;3.40;;;3.10;;
1509;SDS011;746;48.688;9.428;2023-02-01T05:51:13;3.60;;;3.40;;
1509;SDS011;746;48.688;9.428;2023-02-01T05:53:34;3.07;;;2.87;;
1509;SDS011;746;48.688;9.428;2023-02-01T05:55:55;2.97;;;2.80;;
1509;SDS011;746;48.688;9.428;2023-02-01T05:58:16;3.23;;;3.03;;
1509;SDS011;746;48.688;9.428;2023-02-01T06:00:38;3.07;;;2.87;;
1509;SDS011;746;48.688;9.428;2023-02-01T06:02:59;3.70;;;3.40;;
1509;SDS011;746;48.688;9.428;2023-02-01T06:05:21;3.23;;;2.97;;
1509;SDS011;746;48.688;9.428;2023-02-01T06:07:44;3.27;;;3.00;;
1509;SDS011;746;48.688;9.428;2023-02-01T06:10:06;3.03;;;2.83;;
1509;SDS011;746;48.688;9.428;2023-02-01T06:12:27;3.20;;;3.00;;
1509;SDS011;746;48.688;9.428;2023-02-01T06:14:49;3.80;;;2.70;;
1509;SDS011;746;48.688;9.428;2023-02-01T06:17:10;3.20;;;3.00;;
1509;SDS011;746;48.688;9.428;2023-02-01T06:19:31;3.27;;;3.00;;
1509;SDS011;746;48.688;9.428;2023-02-01T06:21:53;5.77;;;2.90;;
1509;SDS011;746;48.688;9.428;2023-02-01T06:24:15;3.20;;;2.97;;
1509;SDS011;746;48.688;9.428;2023-02-01T06:26:37;3.57;;;2.83;;
1509;SDS011;746;48.688;9.428;2023-02-01T06:28:58;3.60;;;3.33;;
1509;SDS011;746;48.688;9.428;2023-02-01T06:31:19;3.70;;;3.40;;
1509;SDS011;746;48.688;9.428;2023-02-01T06:33:41;3.37;;;3.07;;
1509;SDS011;746;48.688;9.428;2023-02-01T06:36:03;2.97;;;2.77;;
1509;SDS011;746;48.688;9.428;2023-02-01T06:38:24;3.40;;;3.20;;
1509;SDS011;746;48.688;9.428;2023-02-01T06:40:51;3.40;;;3.10;;
1509;SDS011;746;48.688;9.428;2023-02-01T06:43:12;3.43;;;3.13;;
1509;SDS011;746;48.688;9.428;2023-02-01T06:45:34;3.30;;;3.00;;
1509;SDS011;746;48.688;9.428;2023-02-01T06:47:55;3.30;;;3.00;;
1509;SDS011;746;48.688;9.428;2023-02-01T06:50:16;3.47;;;3.20;;
1509;SDS011;746;48.688;9.428;2023-02-01T06:52:37;3.53;;;3.20;;
1509;SDS011;746;48.688;9.428;2023-02-01T06:54:59;3.17;;;2.97;;
1509;SDS011;746;48.688;9.428;2023-02-01T06:57:21;4.90;;;2.90;;
1509;SDS011;746;48.688;9.428;2023-02-01T06:59:42;3.63;;;3.33;;
1509;SDS011;746;48.688;9.428;2023-02-01T07:02:04;7.00;;;4.63;;
1509;SDS011;746;48.688;9.428;2023-02-01T07:04:25;3.70;;;3.40;;
1509;SDS011;746;48.688;9.428;2023-02-01T07:06:46;3.30;;;3.10;;
1509;SDS011;746;48.688;9.428;2023-02-01T07:09:07;3.40;;;3.20;;
1509;SDS011;746;48.688;9.428;2023-02-01T07:11:29;3.20;;;2.90;;
1509;SDS011;746;48.688;9.428;2023-02-01T07:13:52;3.13;;;2.67;;
1509;SDS011;746;48.688;9.428;2023-02-01T07:16:14;2.23;;;2.13;;
1509;SDS011;746;48.688;9.428;2023-02-01T07:18:35;3.23;;;3.03;;
1509;SDS011;746;48.688;9.428;2023-02-01T07:20:57;3.17;;;2.90;;
1509;SDS011;746;48.688;9.428;2023-02-01T07:23:18;2.87;;;2.60;;
1509;SDS011;746;48.688;9.428;2023-02-01T07:25:40;2.70;;;2.50;;
1509;SDS011;746;48.688;9.428;2023-02-01T07:28:01;3.07;;;2.87;;
1509;SDS011;746;48.688;9.428;2023-02-01T07:30:24;2.67;;;2.47;;
1509;SDS011;746;48.688;9.428;2023-02-01T07:32:46;3.10;;;2.90;;
1509;SDS011;746;48.688;9.428;2023-02-01T07:35:07;2.93;;;2.80;;
1509;SDS011;746;48.688;9.428;2023-02-01T07:37:28;3.10;;;2.90;;
1509;SDS011;746;48.688;9.428;2023-02-01T07:39:50;3.50;;;3.20;;
1509;SDS011;746;48.688;9.428;2023-02-01T07:42:11;3.10;;;2.83;;
1509;SDS011;746;48.688;9.428;2023-02-01T07:44:33;3.13;;;2.93;;
1509;SDS011;746;48.688;9.428;2023-02-01T07:46:55;3.73;;;2.80;;
1509;SDS011;746;48.688;9.428;2023-02-01T07:49:17;2.77;;;2.67;;
1509;SDS011;746;48.688;9.428;2023-02-01T07:51:38;3.53;;;3.23;;
1509;SDS011;746;48.688;9.428;2023-02-01T07:53:59;3.20;;;2.90;;
1509;SDS011;746;48.688;9.428;2023-02-01T07:56:21;3.80;;;3.20;;
1509;SDS011;746;48.688;9.428;2023-02-01T07:58:43;4.10;;;3.43;;
1509;SDS011;746;48.688;9.428;2023-02-01T08:01:04;3.27;;;2.87;;
1509;SDS011;746;48.688;9.428;2023-02-01T08:03:41;4.83;;;3.27;;
1509;SDS011;746;48.688;9.428;2023-02-01T08:06:03;3.53;;;3.23;;
1509;SDS011;746;48.688;9.428;2023-02-01T08:08:24;3.40;;;3.10;;
1509;SDS011;746;48.688;9.428;2023-02-01T08:10:46;2.83;;;2.63;;
1509;SDS011;746;48.688;9.428;2023-02-01T08:13:07;3.73;;;3.43;;
1509;SDS011;746;48.688;9.428;2023-02-01T08:15:29;3.17;;;2.97;;
1509;SDS011;746;48.688;9.428;2023-02-01T08:17:50;3.50;;;3.20;;
1509;SDS011;746;48.688;9.428;2023-02-01T08:20:13;3.40;;;3.00;;
1509;SDS011;746;48.688;9.428;2023-02-01T08:22:34;3.97;;;3.07;;
1509;SDS011;746;48.688;9.428;2023-02-01T08:24:56;3.40;;;3.20;;
1509;SDS011;746;48.688;9.428;2023-02-01T08:27:21;3.50;;;3.20;;
1509;SDS011;746;48.688;9.428;2023-02-01T08:29:42;3.60;;;3.30;;
1509;SDS011;746;48.688;9.428;2023-02-01T08:32:04;3.07;;;2.83;;
1509;SDS011;746;48.688;9.428;2023-02-01T08:34:25;3.60;;;3.30;;
1509;SDS011;746;48.688;9.428;2023-02-01T08:36:48;3.43;;;3.13;;
1509;SDS011;746;48.688;9.428;2023-02-01T08:39:11;3.37;;;3.07;;
1509;SDS011;746;48.688;9.428;2023-02-01T08:41:32;3.27;;;3.07;;
1509;SDS011;746;48.688;9.428;2023-02-01T08:43:53;3.30;;;3.00;;
1509;SDS011;746;48.688;9.428;2023-02-01T08:46:15;3.07;;;2.80;;
1509;SDS011;746;48.688;9.428;2023-02-01T08:48:37;3.30;;;2.97;;
1509;SDS011;746;48.688;9.428;2023-02-01T08:51:00;3.37;;;3.17;;
1509;SDS011;746;48.688;9.428;2023-02-01T08:53:23;5.37;;;3.20;;
1509;SDS011;746;48.688;9.428;2023-02-01T08:55:45;3.10;;;2.80;;
1509;SDS011;746;48.688;9.428;2023-02-01T08:58:06;3.27;;;3.07;;
1509;SDS011;746;48.688;9.428;2023-02-01T09:00:27;3.70;;;3.17;;
1509;SDS011;746;48.688;9.428;2023-02-01T09:02:48;6.23;;;4.00;;
1509;SDS011;746;48.688;9.428;2023-02-01T09:05:10;3.30;;;2.97;;
1509;SDS011;746;48.688;9.428;2023-02-01T09:07:31;4.20;;;3.20;;
1509;SDS011;746;48.688;9.428;2023-02-01T09:09:54;4.90;;;3.60;;
1509;SDS011;746;48.688;9.428;2023-02-01T09:12:16;4.57;;;3.70;;
1509;SDS011;746;48.688;9.428;2023-02-01T09:14:37;4.57;;;3.03;;
1509;SDS011;746;48.688;9.428;2023-02-01T09:16:59;6.13;;;3.30;;
1509;SDS011;746;48.688;9.428;2023-02-01T09:19:20;3.20;;;2.90;;
1509;SDS011;746;48.688;9.428;2023-02-01T09:21:46;3.80;;;3.03;;
1509;SDS011;746;48.688;9.428;2023-02-01T09:24:08;3.23;;;3.00;;
1509;SDS011;746;48.688;9.428;2023-02-01T09:26:31;3.60;;;3.03;;
1509;SDS011;746;48.688;9.428;2023-02-01T09:28:53;4.53;;;3.20;;
1509;SDS011;746;48.688;9.428;2023-02-01T09:31:14;3.10;;;2.80;;
1509;SDS011;746;48.688;9.428;2023-02-01T09:33:35;4.23;;;3.83;;
1509;SDS011;746;48.688;9.428;2023-02-01T09:35:56;3.50;;;3.20;;
1509;SDS011;746;48.688;9.428;2023-02-01T09:38:17;5.70;;;3.40;;
1509;SDS011;746;48.688;9.428;2023-02-01T09:40:39;2.80;;;2.60;;
1509;SDS011;746;48.688;9.428;2023-02-01T09:43:08;3.80;;;3.47;;
1509;SDS011;746;48.688;9.428;2023-02-01T09:45:33;3.40;;;2.93;;
1509;SDS011;746;48.688;9.428;2023-02-01T09:48:00;3.23;;;2.80;;
1509;SDS011;746;48.688;9.428;2023-02-01T09:50:26;3.87;;;3.03;;
1509;SDS011;746;48.688;9.428;2023-02-01T09:52:52;3.83;;;2.93;;
1509;SDS011;746;48.688;9.428;2023-02-01T09:55:15;3.33;;;3.03;;
1509;SDS011;746;48.688;9.428;2023-02-01T09:57:40;3.37;;;3.07;;
1509;SDS011;746;48.688;9.428;2023-02-01T10:00:05;4.07;;;3.67;;
1509;SDS011;746;48.688;9.428;2023-02-01T10:02:27;3.43;;;3.07;;
1509;SDS011;746;48.688;9.428;2023-02-01T10:04:50;3.30;;;3.00;;
1509;SDS011;746;48.688;9.428;2023-02-01T10:07:17;3.47;;;3.03;;
1509;SDS011;746;48.688;9.428;2023-02-01T10:09:43;3.30;;;2.80;;
1509;SDS011;746;48.688;9.428;2023-02-01T10:14:45;3.17;;;2.97;;
1509;SDS011;746;48.688;9.428;2023-02-01T10:17:12;3.47;;;3.10;;
1509;SDS011;746;48.688;9.428;2023-02-01T10:19:39;2.77;;;2.57;;
1509;SDS011;746;48.688;9.428;2023-02-01T10:22:06;3.30;;;2.83;;
1509;SDS011;746;48.688;9.428;2023-02-01T10:24:34;4.47;;;2.80;;
1509;SDS011;746;48.688;9.428;2023-02-01T10:26:57;4.63;;;2.90;;
1509;SDS011;746;48.688;9.428;2023-02-01T10:29:20;3.10;;;2.80;;
1509;SDS011;746;48.688;9.428;2023-02-01T10:31:43;5.37;;;3.90;;
1509;SDS011;746;48.688;9.428;2023-02-01T10:34:11;4.23;;;3.60;;
1509;SDS011;746;48.688;9.428;2023-02-01T10:36:40;7.90;;;5.57;;
1509;SDS011;746;48.688;9.428;2023-02-01T10:39:02;8.63;;;4.07;;
1509;SDS011;746;48.688;9.428;2023-02-01T10:41:23;7.30;;;3.97;;
1509;SDS011;746;48.688;9.428;2023-02-01T10:43:48;7.20;;;4.07;;
1509;SDS011;746;48.688;9.428;2023-02-01T10:46:10;4.53;;;3.80;;
1509;SDS011;746;48.688;9.428;2023-02-01T10:48:31;6.97;;;3.30;;
1509;SDS011;746;48.688;9.428;2023-02-01T10:50:54;4.57;;;3.23;;
1509;SDS011;746;48.688;9.428;2023-02-01T10:53:18;8.57;;;5.00;;
1509;SDS011;746;48.688;9.428;2023-02-01T10:55:41;5.67;;;3.60;;
1509;SDS011;746;48.688;9.428;2023-02-01T10:58:14;7.53;;;4.47;;
1509;SDS011;746;48.688;9.428;2023-02-01T11:00:39;7.30;;;3.43;;
1509;SDS011;746;48.688;9.428;2023-02-01T11:03:03;8.20;;;3.60;;
1509;SDS011;746;48.688;9.428;2023-02-01T11:05:43;4.87;;;3.10;;
1509;SDS011;746;48.688;9.428;2023-02-01T11:08:12;7.90;;;4.43;;
1509;SDS011;746;48.688;9.428;2023-02-01T11:10:36;5.00;;;3.33;;
1509;SDS011;746;48.688;9.428;2023-02-01T11:12:57;7.43;;;3.40;;
1509;SDS011;746;48.688;9.428;2023-02-01T11:15:23;8.10;;;4.03;;
1509;SDS011;746;48.688;9.428;2023-02-01T11:17:46;7.40;;;3.60;;
1509;SDS011;746;48.688;9.428;2023-02-01T11:20:12;5.23;;;3.37;;
1509;SDS011;746;48.688;9.428;2023-02-01T11:22:34;5.67;;;2.70;;
1509;SDS011;746;48.688;9.428;2023-02-01T11:25:09;5.13;;;3.57;;
1509;SDS011;746;48.688;9.428;2023-02-01T11:27:31;7.73;;;4.00;;
1509;SDS011;746;48.688;9.428;2023-02-01T11:30:02;4.57;;;3.43;;
1509;SDS011;746;48.688;9.428;2023-02-01T11:32:24;6.23;;;3.57;;
1509;SDS011;746;48.688;9.428;2023-02-01T11:34:46;6.50;;;3.43;;
1509;SDS011;746;48.688;9.428;2023-02-01T11:37:13;4.87;;;3.33;;
1509;SDS011;746;48.688;9.428;2023-02-01T11:39:35;8.83;;;3.63;;
1509;SDS011;746;48.688;9.428;2023-02-01T11:41:59;7.83;;;3.60;;
1509;SDS011;746;48.688;9.428;2023-02-01T11:44:21;7.73;;;3.37;;
1509;SDS011;746;48.688;9.428;2023-02-01T11:46:43;7.53;;;3.37;;
1509;SDS011;746;48.688;9.428;2023-02-01T11:49:13;7.37;;;3.57;;
1509;SDS011;746;48.688;9.428;2023-02-01T11:51:42;8.10;;;3.40;;
1509;SDS011;746;48.688;9.428;2023-02-01T11:54:13;6.13;;;3.10;;
1509;SDS011;746;48.688;9.428;2023-02-01T11:56:36;7.87;;;3.60;;
1509;SDS011;746;48.688;9.428;2023-02-01T12:01:42;6.03;;;3.30;;
1509;SDS011;746;48.688;9.428;2023-02-01T12:04:12;5.87;;;3.43;;
1509;SDS011;746;48.688;9.428;2023-02-01T12:06:39;6.30;;;3.23;;
1509;SDS011;746;48.688;9.428;2023-02-01T12:09:08;12.17;;;3.57;;
1509;SDS011;746;48.688;9.428;2023-02-01T12:11:35;7.90;;;3.40;;
1509;SDS011;746;48.688;9.428;2023-02-01T12:14:04;7.20;;;3.23;;
1509;SDS011;746;48.688;9.428;2023-02-01T12:16:28;7.67;;;3.10;;
1509;SDS011;746;48.688;9.428;2023-02-01T12:18:58;9.40;;;3.17;;
1509;SDS011;746;48.688;9.428;2023-02-01T12:21:30;8.63;;;3.10;;
1509;SDS011;746;48.688;9.428;2023-02-01T12:24:11;7.23;;;2.90;;
1509;SDS011;746;48.688;9.428;2023-02-01T12:26:45;7.70;;;3.53;;
1509;SDS011;746;48.688;9.428;2023-02-01T12:29:12;5.97;;;2.93;;
1509;SDS011;746;48.688;9.428;2023-02-01T12:31:42;8.00;;;3.30;;
1509;SDS011;746;48.688;9.428;2023-02-01T12:34:16;6.73;;;3.70;;
1509;SDS011;746;48.688;9.428;2023-02-01T12:36:42;9.33;;;3.50;;
1509;SDS011;746;48.688;9.428;2023-02-01T12:39:07;6.50;;;3.63;;
1509;SDS011;746;48.688;9.428;2023-02-01T12:41:35;7.53;;;3.53;;
1509;SDS011;746;48.688;9.428;2023-02-01T12:43:58;7.80;;;3.37;;
1509;SDS011;746;48.688;9.428;2023-02-01T12:46:21;7.73;;;3.50;;
1509;SDS011;746;48.688;9.428;2023-02-01T12:48:58;8.77;;;4.27;;
1509;SDS011;746;48.688;9.428;2023-02-01T12:51:23;13.47;;;3.27;;
1509;SDS011;746;48.688;9.428;2023-02-01T12:53:46;12.67;;;4.57;;
1509;SDS011;746;48.688;9.428;2023-02-01T12:56:10;10.97;;;3.67;;
1509;SDS011;746;48.688;9.428;2023-02-01T12:58:35;6.47;;;3.40;;
1509;SDS011;746;48.688;9.428;2023-02-01T13:01:00;7.60;;;4.17;;
1509;SDS011;746;48.688;9.428;2023-02-01T13:03:27;7.37;;;4.43;;
1509;SDS011;746;48.688;9.428;2023-02-01T13:05:52;7.93;;;4.90;;
1509;SDS011;746;48.688;9.428;2023-02-01T13:08:17;7.33;;;4.13;;
1509;SDS011;746;48.688;9.428;2023-02-01T13:10:42;7.73;;;5.00;;
1509;SDS011;746;48.688;9.428;2023-02-01T13:13:07;8.07;;;3.40;;
1509;SDS011;746;48.688;9.428;2023-02-01T13:15:31;11.80;;;4.20;;
1509;SDS011;746;48.688;9.428;2023-02-01T13:17:54;7.97;;;4.07;;
1509;SDS011;746;48.688;9.428;2023-02-01T13:20:18;4.13;;;3.13;;
1509;SDS011;746;48.688;9.428;2023-02-01T13:22:40;9.40;;;3.93;;
1509;SDS011;746;48.688;9.428;2023-02-01T13:25:07;8.67;;;3.73;;
1509;SDS011;746;48.688;9.428;2023-02-01T13:27:32;7.03;;;3.40;;
1509;SDS011;746;48.688;9.428;2023-02-01T13:29:55;6.43;;;3.67;;
1509;SDS011;746;48.688;9.428;2023-02-01T13:32:21;9.50;;;3.80;;
1509;SDS011;746;48.688;9.428;2023-02-01T13:35:13;6.70;;;3.67;;
1509;SDS011;746;48.688;9.428;2023-02-01T13:37:50;7.87;;;4.07;;
1509;SDS011;746;48.688;9.428;2023-02-01T13:40:25;10.37;;;3.27;;
1509;SDS011;746;48.688;9.428;2023-02-01T13:42:51;10.00;;;3.60;;
1509;SDS011;746;48.688;9.428;2023-02-01T13:45:14;9.33;;;3.50;;
1509;SDS011;746;48.688;9.428;2023-02-01T13:47:38;8.90;;;4.23;;
1509;SDS011;746;48.688;9.428;2023-02-01T13:50:02;8.67;;;4.30;;
1509;SDS011;746;48.688;9.428;2023-02-01T13:52:29;6.93;;;4.57;;
1509;SDS011;746;48.688;9.428;2023-02-01T13:55:00;12.60;;;3.47;;
1509;SDS011;746;48.688;9.428;2023-02-01T13:57:32;8.63;;;3.97;;
1509;SDS011;746;48.688;9.428;2023-02-01T13:59:54;5.90;;;3.27;;
1509;SDS011;746;48.688;9.428;2023-02-01T14:02:37;7.80;;;3.40;;
1509;SDS011;746;48.688;9.428;2023-02-01T14:05:06;9.80;;;4.47;;
1509;SDS011;746;48.688;9.428;2023-02-01T14:07:28;12.00;;;4.70;;
1509;SDS011;746;48.688;9.428;2023-02-01T14:09:50;6.57;;;3.57;;
1509;SDS011;746;48.688;9.428;2023-02-01T14:14:52;7.10;;;3.50;;
1509;SDS011;746;48.688;9.428;2023-02-01T14:17:34;9.53;;;3.77;;
1509;SDS011;746;48.688;9.428;2023-02-01T14:20:07;11.03;;;4.03;;
1509;SDS011;746;48.688;9.428;2023-02-01T14:22:49;14.57;;;8.00;;
1509;SDS011;746;48.688;9.428;2023-02-01T14:25:14;7.77;;;3.30;;
1509;SDS011;746;48.688;9.428;2023-02-01T14:27:37;10.03;;;4.97;;
1509;SDS011;746;48.688;9.428;2023-02-01T14:30:00;15.97;;;8.03;;
1509;SDS011;746;48.688;9.428;2023-02-01T14:32:22;8.73;;;3.27;;
1509;SDS011;746;48.688;9.428;2023-02-01T14:34:48;5.77;;;3.23;;
1509;SDS011;746;48.688;9.428;2023-02-01T14:37:13;6.57;;;3.30;;
1509;SDS011;746;48.688;9.428;2023-02-01T14:39:50;7.73;;;3.90;;
1509;SDS011;746;48.688;9.428;2023-02-01T14:42:15;9.60;;;3.23;;
1509;SDS011;746;48.688;9.428;2023-02-01T14:44:39;8.00;;;3.43;;
1509;SDS011;746;48.688;9.428;2023-02-01T14:47:30;8.53;;;2.77;;
1509;SDS011;746;48.688;9.428;2023-02-01T14:49:58;9.40;;;3.83;;
1509;SDS011;746;48.688;9.428;2023-02-01T14:52:22;8.07;;;3.20;;
1509;SDS011;746;48.688;9.428;2023-02-01T14:54:44;9.70;;;3.97;;
1509;SDS011;746;48.688;9.428;2023-02-01T14:57:10;11.50;;;4.07;;
1509;SDS011;746;48.688;9.428;2023-02-01T14:59:34;9.80;;;3.67;;
1509;SDS011;746;48.688;9.428;2023-02-01T15:01:57;6.63;;;3.20;;
1509;SDS011;746;48.688;9.428;2023-02-01T15:04:20;10.10;;;3.57;;
1509;SDS011;746;48.688;9.428;2023-02-01T15:06:42;6.30;;;2.80;;
1509;SDS011;746;48.688;9.428;2023-02-01T15:09:07;6.97;;;2.90;;
1509;SDS011;746;48.688;9.428;2023-02-01T15:11:29;9.10;;;3.47;;
1509;SDS011;746;48.688;9.428;2023-02-01T15:13:51;9.50;;;3.40;;
1509;SDS011;746;48.688;9.428;2023-02-01T15:16:14;7.03;;;4.00;;
1509;SDS011;746;48.688;9.428;2023-02-01T15:18:36;8.50;;;4.13;;
1509;SDS011;746;48.688;9.428;2023-02-01T15:21:00;5.70;;;3.03;;
1509;SDS011;746;48.688;9.428;2023-02-01T15:23:41;9.20;;;3.63;;
1509;SDS011;746;48.688;9.428;2023-02-01T15:26:03;8.73;;;3.60;;